createdAt,value
2018-05-02T00:00:25.464Z,0
2018-05-02T00:01:26.809Z,0
2018-05-02T00:02:28.184Z,0
2018-05-02T00:03:29.532Z,0
2018-05-02T00:04:30.876Z,0
2018-05-02T00:05:32.225Z,0
2018-05-02T00:06:33.567Z,0
2018-05-02T00:07:34.917Z,0
2018-05-02T00:08:36.272Z,0
2018-05-02T00:09:37.610Z,0
2018-05-02T00:10:38.964Z,0
2018-05-02T00:11:40.318Z,0
2018-05-02T00:12:41.665Z,0
2018-05-02T00:13:43.012Z,0
2018-05-02T00:14:44.360Z,0
2018-05-02T00:15:45.709Z,0
2018-05-02T00:16:47.058Z,0
2018-05-02T00:17:48.407Z,0
2018-05-02T00:18:49.763Z,0
2018-05-02T00:19:51.105Z,0
2018-05-02T00:20:52.455Z,0
2018-05-02T00:21:53.807Z,0
2018-05-02T00:22:55.155Z,0
2018-05-02T00:23:56.509Z,0
2018-05-02T00:24:57.861Z,0
2018-05-02T00:25:59.225Z,0
2018-05-02T00:27:00.564Z,0
2018-05-02T00:28:01.912Z,0
2018-05-02T00:29:03.257Z,0
2018-05-02T00:30:04.609Z,0
2018-05-02T00:31:06.820Z,0
2018-05-02T00:32:08.165Z,0
2018-05-02T00:33:09.523Z,0
2018-05-02T00:34:10.861Z,0
2018-05-02T00:35:12.214Z,0
2018-05-02T00:36:13.557Z,0
2018-05-02T00:37:14.909Z,0
2018-05-02T00:38:16.255Z,0
2018-05-02T00:39:17.607Z,0
2018-05-02T00:40:18.953Z,0
2018-05-02T00:41:20.312Z,0
2018-05-02T00:42:21.655Z,0
2018-05-02T00:43:23.008Z,0
2018-05-02T00:44:24.359Z,0
2018-05-02T00:45:25.724Z,0
2018-05-02T00:46:27.069Z,0
2018-05-02T00:47:28.425Z,0
2018-05-02T00:48:29.767Z,0
2018-05-02T00:49:31.121Z,0
2018-05-02T00:50:32.472Z,0
2018-05-02T00:51:33.822Z,0
2018-05-02T00:52:35.181Z,0
2018-05-02T00:53:36.537Z,0
2018-05-02T00:54:37.885Z,0
2018-05-02T00:55:39.239Z,0
2018-05-02T00:56:40.587Z,0
2018-05-02T00:57:41.946Z,0
2018-05-02T00:58:43.330Z,0
2018-05-02T00:59:44.646Z,0
2018-05-02T01:00:46.005Z,0
2018-05-02T01:01:47.354Z,0
2018-05-02T01:02:48.711Z,0
2018-05-02T01:03:50.057Z,0
2018-05-02T01:04:51.405Z,0
2018-05-02T01:05:52.754Z,0
2018-05-02T01:06:54.108Z,0
2018-05-02T01:07:55.449Z,0
2018-05-02T01:08:56.801Z,0
2018-05-02T01:09:58.145Z,0
2018-05-02T01:10:59.493Z,0
2018-05-02T01:12:00.843Z,0
2018-05-02T01:13:02.195Z,0
2018-05-02T01:14:03.556Z,0
2018-05-02T01:15:04.894Z,0
2018-05-02T01:16:06.249Z,0
2018-05-02T01:17:07.612Z,0
2018-05-02T01:18:08.956Z,0
2018-05-02T01:19:10.308Z,0
2018-05-02T01:20:11.656Z,0
2018-05-02T01:21:13.005Z,0
2018-05-02T01:22:14.358Z,0
2018-05-02T01:23:15.708Z,0
2018-05-02T01:24:17.057Z,0
2018-05-02T01:25:18.416Z,0
2018-05-02T01:26:19.774Z,0
2018-05-02T01:27:21.126Z,0
2018-05-02T01:28:22.494Z,0
2018-05-02T01:29:23.862Z,0
2018-05-02T01:30:25.317Z,0
2018-05-02T01:31:26.672Z,0
2018-05-02T01:32:28.030Z,0
2018-05-02T01:33:29.373Z,0
2018-05-02T01:34:30.763Z,0
2018-05-02T01:35:32.082Z,0
2018-05-02T01:36:33.425Z,0
2018-05-02T01:37:34.779Z,0
2018-05-02T01:38:36.136Z,0
2018-05-02T01:39:37.485Z,0
2018-05-02T01:40:38.836Z,0
2018-05-02T01:41:40.187Z,0
2018-05-02T01:42:41.540Z,0
2018-05-02T01:43:42.900Z,0
2018-05-02T01:44:44.254Z,0
2018-05-02T01:45:45.599Z,0
2018-05-02T01:46:46.957Z,0
2018-05-02T01:47:48.306Z,0
2018-05-02T01:48:49.657Z,0
2018-05-02T01:49:51.006Z,0
2018-05-02T01:50:52.355Z,0
2018-05-02T01:51:53.717Z,0
2018-05-02T01:52:55.059Z,0
2018-05-02T01:53:56.406Z,0
2018-05-02T01:54:57.761Z,0
2018-05-02T01:55:59.111Z,0
2018-05-02T01:57:00.462Z,0
2018-05-02T01:58:01.813Z,0
2018-05-02T01:59:03.176Z,0
2018-05-02T02:00:04.525Z,0
2018-05-02T02:01:05.880Z,0
2018-05-02T02:02:07.227Z,0
2018-05-02T02:03:08.600Z,0
2018-05-02T02:04:09.947Z,0
2018-05-02T02:05:11.298Z,0
2018-05-02T02:06:12.661Z,0
2018-05-02T02:07:14.016Z,0
2018-05-02T02:08:15.361Z,0
2018-05-02T02:09:16.717Z,0
2018-05-02T02:10:18.066Z,0
2018-05-02T02:11:19.418Z,0
2018-05-02T02:12:20.776Z,0
2018-05-02T02:13:22.146Z,0
2018-05-02T02:14:23.489Z,0
2018-05-02T02:15:24.839Z,0
2018-05-02T02:16:26.187Z,0
2018-05-02T02:17:27.537Z,0
2018-05-02T02:18:28.895Z,0
2018-05-02T02:19:30.243Z,0
2018-05-02T02:20:31.595Z,0
2018-05-02T02:21:32.950Z,0
2018-05-02T02:22:34.303Z,0
2018-05-02T02:23:35.654Z,0
2018-05-02T02:24:37.002Z,0
2018-05-02T02:25:38.353Z,0
2018-05-02T02:26:39.706Z,0
2018-05-02T02:27:41.063Z,0
2018-05-02T02:28:42.932Z,0
2018-05-02T02:29:44.278Z,0
2018-05-02T02:30:45.633Z,0
2018-05-02T02:31:46.988Z,0
2018-05-02T02:32:48.341Z,0
2018-05-02T02:33:49.697Z,0
2018-05-02T02:34:51.049Z,0
2018-05-02T02:35:52.399Z,0
2018-05-02T02:36:53.747Z,0
2018-05-02T02:37:55.096Z,0
2018-05-02T02:38:56.447Z,0
2018-05-02T02:39:57.795Z,0
2018-05-02T02:40:59.247Z,0
2018-05-02T02:42:00.598Z,0
2018-05-02T02:43:01.947Z,0
2018-05-02T02:44:03.287Z,0
2018-05-02T02:45:04.631Z,0
2018-05-02T02:46:05.987Z,0
2018-05-02T02:47:07.332Z,0
2018-05-02T02:48:08.676Z,0
2018-05-02T02:49:10.032Z,0
2018-05-02T02:50:11.379Z,0
2018-05-02T02:51:12.731Z,0
2018-05-02T02:52:14.163Z,0
2018-05-02T02:53:15.514Z,0
2018-05-02T02:54:16.869Z,0
2018-05-02T02:55:18.237Z,0
2018-05-02T02:56:19.568Z,0
2018-05-02T02:57:20.921Z,0
2018-05-02T02:58:22.269Z,0
2018-05-02T02:59:23.618Z,0
2018-05-02T03:00:24.971Z,0
2018-05-02T03:01:26.322Z,0
2018-05-02T03:02:27.678Z,0
2018-05-02T03:03:29.023Z,0
2018-05-02T03:04:30.376Z,0
2018-05-02T03:05:31.731Z,0
2018-05-02T03:06:33.092Z,0
2018-05-02T03:07:34.445Z,0
2018-05-02T03:08:35.800Z,0
2018-05-02T03:09:37.151Z,0
2018-05-02T03:10:38.508Z,0
2018-05-02T03:11:39.856Z,0
2018-05-02T03:12:41.212Z,0
2018-05-02T03:13:42.562Z,0
2018-05-02T03:14:43.923Z,0
2018-05-02T03:15:45.303Z,0
2018-05-02T03:16:46.654Z,0
2018-05-02T03:17:48.008Z,0
2018-05-02T03:18:49.355Z,0
2018-05-02T03:19:50.704Z,0
2018-05-02T03:20:52.091Z,0
2018-05-02T03:21:53.438Z,0
2018-05-02T03:22:54.790Z,0
2018-05-02T03:23:56.143Z,0
2018-05-02T03:24:57.491Z,0
2018-05-02T03:25:58.849Z,0
2018-05-02T03:27:00.232Z,0
2018-05-02T03:28:01.591Z,0
2018-05-02T03:29:02.946Z,0
2018-05-02T03:30:04.305Z,0
2018-05-02T03:31:05.664Z,0
2018-05-02T03:32:07.017Z,0
2018-05-02T03:33:08.366Z,0
2018-05-02T03:34:09.709Z,0
2018-05-02T03:35:11.062Z,0
2018-05-02T03:36:12.408Z,0
2018-05-02T03:37:13.758Z,0
2018-05-02T03:38:15.113Z,0
2018-05-02T03:39:16.468Z,0
2018-05-02T03:40:17.819Z,0
2018-05-02T03:41:19.164Z,0
2018-05-02T03:42:20.518Z,0
2018-05-02T03:43:21.868Z,0
2018-05-02T03:44:23.214Z,0
2018-05-02T03:45:24.571Z,0
2018-05-02T03:46:25.921Z,0
2018-05-02T03:47:27.273Z,0
2018-05-02T03:48:28.623Z,0
2018-05-02T03:49:29.974Z,0
2018-05-02T03:50:31.340Z,0
2018-05-02T03:51:32.702Z,0
2018-05-02T03:52:34.051Z,0
2018-05-02T03:53:36.334Z,0
2018-05-02T03:54:37.681Z,5
2018-05-02T03:55:39.028Z,5
2018-05-02T03:56:40.380Z,5
2018-05-02T03:57:41.737Z,5
2018-05-02T03:58:43.084Z,5
2018-05-02T03:59:44.493Z,5
2018-05-02T04:00:45.801Z,11
2018-05-02T04:01:47.152Z,11
2018-05-02T04:02:48.510Z,11
2018-05-02T04:03:49.860Z,11
2018-05-02T04:04:51.215Z,11
2018-05-02T04:05:52.571Z,16
2018-05-02T04:06:53.935Z,16
2018-05-02T04:07:55.284Z,16
2018-05-02T04:08:56.640Z,16
2018-05-02T04:09:57.996Z,22
2018-05-02T04:10:59.352Z,22
2018-05-02T04:12:00.705Z,22
2018-05-02T04:13:02.679Z,22
2018-05-02T04:14:04.030Z,28
2018-05-02T04:15:05.385Z,28
2018-05-02T04:16:06.736Z,28
2018-05-02T04:17:08.096Z,33
2018-05-02T04:18:09.442Z,33
2018-05-02T04:19:10.795Z,39
2018-05-02T04:20:12.153Z,39
2018-05-02T04:21:13.504Z,45
2018-05-02T04:22:14.898Z,45
2018-05-02T04:23:16.246Z,50
2018-05-02T04:24:17.624Z,50
2018-05-02T04:25:18.997Z,56
2018-05-02T04:26:20.342Z,56
2018-05-02T04:27:21.697Z,61
2018-05-02T04:28:23.050Z,61
2018-05-02T04:29:24.406Z,67
2018-05-02T04:30:25.764Z,73
2018-05-02T04:31:27.119Z,78
2018-05-02T04:32:28.467Z,84
2018-05-02T04:33:29.838Z,84
2018-05-02T04:34:31.188Z,84
2018-05-02T04:35:32.542Z,90
2018-05-02T04:36:33.905Z,95
2018-05-02T04:37:35.282Z,95
2018-05-02T04:38:36.642Z,101
2018-05-02T04:39:37.992Z,106
2018-05-02T04:40:39.345Z,118
2018-05-02T04:41:40.694Z,123
2018-05-02T04:42:42.052Z,129
2018-05-02T04:43:43.430Z,135
2018-05-02T04:44:44.791Z,140
2018-05-02T04:45:46.150Z,146
2018-05-02T04:46:47.509Z,151
2018-05-02T04:47:48.918Z,151
2018-05-02T04:48:50.282Z,151
2018-05-02T04:49:51.634Z,157
2018-05-02T04:50:52.992Z,157
2018-05-02T04:51:54.343Z,157
2018-05-02T04:52:55.699Z,157
2018-05-02T04:53:57.054Z,163
2018-05-02T04:54:58.403Z,163
2018-05-02T04:55:59.763Z,163
2018-05-02T04:57:01.119Z,157
2018-05-02T04:58:02.473Z,151
2018-05-02T04:59:03.832Z,151
2018-05-02T05:00:05.184Z,146
2018-05-02T05:01:06.565Z,146
2018-05-02T05:02:07.923Z,146
2018-05-02T05:03:09.281Z,140
2018-05-02T05:04:10.640Z,135
2018-05-02T05:05:11.996Z,135
2018-05-02T05:06:13.344Z,135
2018-05-02T05:07:14.704Z,135
2018-05-02T05:08:16.059Z,135
2018-05-02T05:09:17.426Z,135
2018-05-02T05:10:18.784Z,140
2018-05-02T05:11:20.154Z,146
2018-05-02T05:12:21.596Z,151
2018-05-02T05:13:22.876Z,157
2018-05-02T05:14:24.228Z,168
2018-05-02T05:15:25.579Z,174
2018-05-02T05:16:26.942Z,174
2018-05-02T05:17:28.304Z,180
2018-05-02T05:18:29.664Z,180
2018-05-02T05:19:31.036Z,180
2018-05-02T05:20:32.393Z,185
2018-05-02T05:21:33.745Z,174
2018-05-02T05:22:35.100Z,174
2018-05-02T05:23:36.468Z,180
2018-05-02T05:24:37.828Z,185
2018-05-02T05:25:39.187Z,196
2018-05-02T05:26:40.544Z,202
2018-05-02T05:27:41.893Z,202
2018-05-02T05:28:43.255Z,202
2018-05-02T05:29:44.607Z,196
2018-05-02T05:30:45.967Z,196
2018-05-02T05:31:47.328Z,196
2018-05-02T05:32:48.697Z,196
2018-05-02T05:33:50.055Z,191
2018-05-02T05:34:51.413Z,191
2018-05-02T05:35:52.779Z,196
2018-05-02T05:36:54.135Z,208
2018-05-02T05:37:55.490Z,219
2018-05-02T05:38:56.853Z,241
2018-05-02T05:39:58.214Z,253
2018-05-02T05:40:59.576Z,270
2018-05-02T05:42:00.935Z,286
2018-05-02T05:43:02.298Z,309
2018-05-02T05:44:03.654Z,326
2018-05-02T05:45:05.013Z,354
2018-05-02T05:46:06.366Z,382
2018-05-02T05:47:07.728Z,405
2018-05-02T05:48:09.096Z,421
2018-05-02T05:49:10.453Z,438
2018-05-02T05:50:11.813Z,450
2018-05-02T05:51:13.169Z,461
2018-05-02T05:52:14.549Z,472
2018-05-02T05:53:15.910Z,483
2018-05-02T05:54:17.369Z,517
2018-05-02T05:55:18.636Z,534
2018-05-02T05:56:19.994Z,568
2018-05-02T05:57:21.363Z,596
2018-05-02T05:58:22.717Z,618
2018-05-02T05:59:24.071Z,635
2018-05-02T06:00:25.436Z,652
2018-05-02T06:01:26.800Z,663
2018-05-02T06:02:28.188Z,680
2018-05-02T06:03:29.547Z,686
2018-05-02T06:04:30.905Z,675
2018-05-02T06:05:32.261Z,658
2018-05-02T06:06:33.627Z,697
2018-05-02T06:07:35.004Z,675
2018-05-02T06:08:36.388Z,663
2018-05-02T06:09:37.800Z,663
2018-05-02T06:10:39.163Z,652
2018-05-02T06:11:40.526Z,635
2018-05-02T06:12:41.901Z,630
2018-05-02T06:13:43.251Z,590
2018-05-02T06:14:44.618Z,579
2018-05-02T06:15:45.984Z,573
2018-05-02T06:16:47.387Z,568
2018-05-02T06:17:48.737Z,573
2018-05-02T06:18:50.169Z,573
2018-05-02T06:19:51.474Z,590
2018-05-02T06:20:52.872Z,601
2018-05-02T06:21:54.227Z,630
2018-05-02T06:22:55.599Z,579
2018-05-02T06:23:56.961Z,624
2018-05-02T06:24:58.329Z,663
2018-05-02T06:25:59.692Z,663
2018-05-02T06:27:01.051Z,658
2018-05-02T06:28:02.409Z,641
2018-05-02T06:29:03.779Z,680
2018-05-02T06:30:05.138Z,849
2018-05-02T06:31:06.508Z,703
2018-05-02T06:32:07.863Z,781
2018-05-02T06:33:09.341Z,765
2018-05-02T06:34:10.927Z,759
2018-05-02T06:35:12.286Z,770
2018-05-02T06:36:13.664Z,798
2018-05-02T06:37:15.035Z,720
2018-05-02T06:38:16.393Z,748
2018-05-02T06:39:17.771Z,928
2018-05-02T06:40:19.136Z,725
2018-05-02T06:41:20.494Z,759
2018-05-02T06:42:21.857Z,798
2018-05-02T06:43:23.231Z,793
2018-05-02T06:44:24.590Z,753
2018-05-02T06:45:25.964Z,849
2018-05-02T06:46:27.330Z,894
2018-05-02T06:47:28.695Z,838
2018-05-02T06:48:30.067Z,798
2018-05-02T06:49:31.500Z,961
2018-05-02T06:50:32.900Z,821
2018-05-02T06:51:34.276Z,922
2018-05-02T06:52:36.155Z,838
2018-05-02T06:53:37.511Z,860
2018-05-02T06:54:38.949Z,849
2018-05-02T06:55:40.205Z,905
2018-05-02T06:56:41.588Z,860
2018-05-02T06:57:42.953Z,1091
2018-05-02T06:58:44.321Z,1423
2018-05-02T06:59:45.693Z,1057
2018-05-02T07:00:47.112Z,990
2018-05-02T07:01:48.426Z,1035
2018-05-02T07:02:49.789Z,1158
2018-05-02T07:03:51.158Z,1237
2018-05-02T07:04:52.520Z,984
2018-05-02T07:05:53.847Z,984
2018-05-02T07:06:55.214Z,1012
2018-05-02T07:07:56.596Z,950
2018-05-02T07:08:57.955Z,1580
2018-05-02T07:09:59.329Z,1035
2018-05-02T07:11:00.683Z,1192
2018-05-02T07:12:02.062Z,1456
2018-05-02T07:13:03.453Z,1186
2018-05-02T07:14:04.827Z,1186
2018-05-02T07:15:06.195Z,1018
2018-05-02T07:16:07.559Z,1018
2018-05-02T07:17:08.993Z,1006
2018-05-02T07:18:10.438Z,1051
2018-05-02T07:19:11.881Z,1119
2018-05-02T07:20:13.150Z,1119
2018-05-02T07:21:14.524Z,1063
2018-05-02T07:22:15.882Z,1051
2018-05-02T07:23:17.256Z,1158
2018-05-02T07:24:18.649Z,1029
2018-05-02T07:25:20.094Z,1198
2018-05-02T07:26:21.461Z,1158
2018-05-02T07:27:22.841Z,1108
2018-05-02T07:28:24.207Z,1192
2018-05-02T07:29:25.612Z,1726
2018-05-02T07:30:26.959Z,1192
2018-05-02T07:31:28.446Z,1282
2018-05-02T07:32:29.869Z,1181
2018-05-02T07:33:31.193Z,1496
2018-05-02T07:34:32.605Z,1428
2018-05-02T07:35:33.974Z,1310
2018-05-02T07:36:35.341Z,1237
2018-05-02T07:37:36.731Z,1192
2018-05-02T07:38:38.094Z,1170
2018-05-02T07:39:39.525Z,1434
2018-05-02T07:40:40.882Z,1293
2018-05-02T07:41:42.270Z,1417
2018-05-02T07:42:43.665Z,1260
2018-05-02T07:43:45.049Z,1147
2018-05-02T07:44:46.422Z,1119
2018-05-02T07:45:47.819Z,1305
2018-05-02T07:46:49.189Z,1400
2018-05-02T07:47:50.572Z,1524
2018-05-02T07:48:51.936Z,1445
2018-05-02T07:49:53.306Z,1580
2018-05-02T07:50:54.680Z,1507
2018-05-02T07:51:56.050Z,1288
2018-05-02T07:52:57.419Z,1181
2018-05-02T07:53:58.790Z,1108
2018-05-02T07:55:00.164Z,1231
2018-05-02T07:56:01.550Z,1175
2018-05-02T07:57:02.927Z,1181
2018-05-02T07:58:04.307Z,1186
2018-05-02T07:59:05.663Z,1963
2018-05-02T08:00:07.069Z,1603
2018-05-02T08:01:08.445Z,1276
2018-05-02T08:02:09.823Z,1355
2018-05-02T08:03:11.214Z,1158
2018-05-02T08:04:12.637Z,1389
2018-05-02T08:05:14.012Z,1147
2018-05-02T08:06:15.416Z,1265
2018-05-02T08:07:18.612Z,1501
2018-05-02T08:08:19.976Z,1305
2018-05-02T08:09:21.349Z,1507
2018-05-02T08:10:22.721Z,1265
2018-05-02T08:11:24.104Z,1265
2018-05-02T08:12:25.462Z,1271
2018-05-02T08:13:26.855Z,1423
2018-05-02T08:14:28.226Z,1507
2018-05-02T08:15:29.596Z,1321
2018-05-02T08:16:30.971Z,1243
2018-05-02T08:17:32.342Z,1271
2018-05-02T08:18:33.885Z,1462
2018-05-02T08:19:35.281Z,1603
2018-05-02T08:20:36.644Z,1620
2018-05-02T08:21:38.009Z,1355
2018-05-02T08:22:39.392Z,1299
2018-05-02T08:23:40.763Z,1321
2018-05-02T08:24:42.153Z,1513
2018-05-02T08:25:43.518Z,1631
2018-05-02T08:26:44.902Z,1535
2018-05-02T08:27:46.302Z,1580
2018-05-02T08:28:47.679Z,1327
2018-05-02T08:29:49.056Z,1299
2018-05-02T08:30:50.428Z,1243
2018-05-02T08:31:51.814Z,1293
2018-05-02T08:32:53.333Z,1372
2018-05-02T08:33:54.553Z,1417
2018-05-02T08:34:55.934Z,1321
2018-05-02T08:35:57.307Z,1423
2018-05-02T08:36:58.746Z,1378
2018-05-02T08:38:00.078Z,1305
2018-05-02T08:39:01.462Z,1276
2018-05-02T08:40:02.840Z,1293
2018-05-02T08:41:04.214Z,1271
2018-05-02T08:42:05.595Z,1276
2018-05-02T08:43:06.962Z,1321
2018-05-02T08:44:08.348Z,1490
2018-05-02T08:45:09.726Z,1468
2018-05-02T08:46:11.123Z,1445
2018-05-02T08:47:12.498Z,1355
2018-05-02T08:48:13.873Z,1350
2018-05-02T08:49:15.243Z,1321
2018-05-02T08:50:16.612Z,1310
2018-05-02T08:51:17.980Z,1299
2018-05-02T08:52:19.360Z,1299
2018-05-02T08:53:20.733Z,1355
2018-05-02T08:54:22.110Z,1389
2018-05-02T08:55:23.477Z,1501
2018-05-02T08:56:24.846Z,1440
2018-05-02T08:57:26.270Z,1389
2018-05-02T08:58:27.593Z,1327
2018-05-02T08:59:28.967Z,1293
2018-05-02T09:00:30.336Z,1282
2018-05-02T09:01:31.738Z,1485
2018-05-02T09:02:33.114Z,1366
2018-05-02T09:03:34.483Z,1344
2018-05-02T09:04:35.859Z,1378
2018-05-02T09:05:37.228Z,1417
2018-05-02T09:06:38.603Z,1518
2018-05-02T09:07:40.001Z,1456
2018-05-02T09:08:41.387Z,1411
2018-05-02T09:09:42.767Z,1389
2018-05-02T09:10:44.141Z,1299
2018-05-02T09:11:45.516Z,1288
2018-05-02T09:12:46.895Z,1344
2018-05-02T09:13:48.337Z,1355
2018-05-02T09:14:49.707Z,1434
2018-05-02T09:15:51.084Z,1636
2018-05-02T09:16:52.450Z,1794
2018-05-02T09:17:53.819Z,1580
2018-05-02T09:18:55.208Z,1485
2018-05-02T09:19:56.578Z,1563
2018-05-02T09:20:57.952Z,1406
2018-05-02T09:21:59.335Z,1321
2018-05-02T09:23:00.716Z,1299
2018-05-02T09:24:02.085Z,1316
2018-05-02T09:25:03.459Z,1361
2018-05-02T09:26:04.839Z,1327
2018-05-02T09:27:06.209Z,1338
2018-05-02T09:28:07.583Z,1344
2018-05-02T09:29:08.996Z,1383
2018-05-02T09:30:10.367Z,1378
2018-05-02T09:31:11.728Z,1355
2018-05-02T09:32:13.120Z,1366
2018-05-02T09:33:14.494Z,1350
2018-05-02T09:34:15.898Z,1321
2018-05-02T09:35:17.264Z,1316
2018-05-02T09:36:18.647Z,1316
2018-05-02T09:37:20.025Z,1321
2018-05-02T09:38:21.386Z,1366
2018-05-02T09:39:23.267Z,1372
2018-05-02T09:40:24.641Z,1378
2018-05-02T09:41:26.010Z,1417
2018-05-02T09:42:27.383Z,1501
2018-05-02T09:43:28.768Z,1473
2018-05-02T09:44:30.139Z,1513
2018-05-02T09:45:31.505Z,1479
2018-05-02T09:46:32.880Z,1518
2018-05-02T09:47:34.257Z,1530
2018-05-02T09:48:35.632Z,1440
2018-05-02T09:49:37.008Z,1400
2018-05-02T09:50:38.380Z,1445
2018-05-02T09:51:39.779Z,1428
2018-05-02T09:52:41.170Z,1423
2018-05-02T09:53:42.556Z,1434
2018-05-02T09:54:43.923Z,1501
2018-05-02T09:55:45.445Z,1535
2018-05-02T09:56:47.092Z,1631
2018-05-02T09:57:48.545Z,1462
2018-05-02T09:58:49.958Z,1591
2018-05-02T09:59:51.414Z,1569
2018-05-02T10:00:52.873Z,1614
2018-05-02T10:01:54.287Z,1636
2018-05-02T10:02:55.714Z,1507
2018-05-02T10:03:57.171Z,1501
2018-05-02T10:04:58.581Z,1485
2018-05-02T10:06:00.070Z,1507
2018-05-02T10:07:01.482Z,1501
2018-05-02T10:08:02.948Z,1563
2018-05-02T10:09:04.339Z,1552
2018-05-02T10:10:06.715Z,1530
2018-05-02T10:11:08.083Z,1766
2018-05-02T10:12:09.464Z,1530
2018-05-02T10:13:10.858Z,1473
2018-05-02T10:14:12.252Z,1479
2018-05-02T10:15:13.632Z,1591
2018-05-02T10:16:15.032Z,1468
2018-05-02T10:17:16.410Z,1423
2018-05-02T10:18:17.797Z,1389
2018-05-02T10:19:19.180Z,1389
2018-05-02T10:20:20.573Z,1417
2018-05-02T10:21:21.959Z,1440
2018-05-02T10:22:23.395Z,1490
2018-05-02T10:23:24.817Z,1569
2018-05-02T10:24:26.204Z,1693
2018-05-02T10:25:27.646Z,1659
2018-05-02T10:26:29.060Z,1603
2018-05-02T10:27:30.499Z,1485
2018-05-02T10:28:31.934Z,1490
2018-05-02T10:29:33.396Z,1501
2018-05-02T10:30:34.805Z,1552
2018-05-02T10:31:36.378Z,1642
2018-05-02T10:32:37.805Z,1636
2018-05-02T10:33:39.247Z,1749
2018-05-02T10:34:40.673Z,1665
2018-05-02T10:35:42.182Z,1704
2018-05-02T10:36:43.566Z,1878
2018-05-02T10:37:45.012Z,1816
2018-05-02T10:38:46.415Z,2008
2018-05-02T10:39:47.794Z,1968
2018-05-02T10:40:49.181Z,2036
2018-05-02T10:41:50.564Z,1957
2018-05-02T10:42:52.026Z,2328
2018-05-02T10:43:53.523Z,1940
2018-05-02T10:44:54.987Z,2064
2018-05-02T10:45:56.438Z,2272
2018-05-02T10:46:57.840Z,1968
2018-05-02T10:47:59.235Z,2317
2018-05-02T10:49:00.663Z,2300
2018-05-02T10:50:02.172Z,2390
2018-05-02T10:51:03.641Z,1985
2018-05-02T10:52:05.086Z,2137
2018-05-02T10:53:06.506Z,2008
2018-05-02T10:54:07.929Z,1985
2018-05-02T10:55:09.354Z,1890
2018-05-02T10:56:10.778Z,1901
2018-05-02T10:57:12.254Z,1766
2018-05-02T10:58:13.697Z,1698
2018-05-02T10:59:15.080Z,1687
2018-05-02T11:00:16.455Z,1704
2018-05-02T11:01:17.840Z,1591
2018-05-02T11:02:19.234Z,1513
2018-05-02T11:03:20.670Z,1518
2018-05-02T11:04:22.092Z,1681
2018-05-02T11:05:23.527Z,1850
2018-05-02T11:06:24.932Z,1771
2018-05-02T11:07:26.322Z,1816
2018-05-02T11:08:27.725Z,1726
2018-05-02T11:09:29.182Z,1625
2018-05-02T11:10:30.621Z,1698
2018-05-02T11:11:32.110Z,1687
2018-05-02T11:12:33.518Z,1755
2018-05-02T11:13:34.899Z,1816
2018-05-02T11:14:36.307Z,2154
2018-05-02T11:15:37.786Z,2317
2018-05-02T11:16:39.267Z,2154
2018-05-02T11:17:40.715Z,1845
2018-05-02T11:18:42.162Z,1732
2018-05-02T11:19:43.581Z,1648
2018-05-02T11:20:45.088Z,1687
2018-05-02T11:21:46.512Z,1665
2018-05-02T11:22:48.033Z,1687
2018-05-02T11:23:49.447Z,1890
2018-05-02T11:24:50.867Z,1845
2018-05-02T11:25:52.321Z,1698
2018-05-02T11:26:53.749Z,1625
2018-05-02T11:27:55.204Z,1620
2018-05-02T11:28:56.608Z,1766
2018-05-02T11:29:57.984Z,1890
2018-05-02T11:30:59.448Z,1620
2018-05-02T11:32:00.854Z,1496
2018-05-02T11:33:02.280Z,1462
2018-05-02T11:34:03.684Z,1440
2018-05-02T11:35:05.160Z,1445
2018-05-02T11:36:06.650Z,1479
2018-05-02T11:37:08.093Z,1490
2018-05-02T11:38:09.506Z,1535
2018-05-02T11:39:10.955Z,1541
2018-05-02T11:40:12.411Z,1546
2018-05-02T11:41:13.846Z,1614
2018-05-02T11:42:15.360Z,1614
2018-05-02T11:43:16.819Z,1603
2018-05-02T11:44:18.215Z,1501
2018-05-02T11:45:19.661Z,1428
2018-05-02T11:46:21.909Z,1411
2018-05-02T11:47:23.215Z,1383
2018-05-02T11:48:24.600Z,1366
2018-05-02T11:49:25.988Z,1344
2018-05-02T11:50:27.363Z,1338
2018-05-02T11:51:28.853Z,1338
2018-05-02T11:52:30.366Z,1350
2018-05-02T11:53:31.812Z,1366
2018-05-02T11:54:34.239Z,1395
2018-05-02T11:55:36.213Z,1417
2018-05-02T11:56:38.442Z,1406
2018-05-02T11:57:40.277Z,1411
2018-05-02T11:58:41.636Z,1411
2018-05-02T11:59:43.053Z,1423
2018-05-02T12:00:44.462Z,1445
2018-05-02T12:01:46.413Z,1451
2018-05-02T12:02:47.844Z,1479
2018-05-02T12:03:49.763Z,1530
2018-05-02T12:04:51.287Z,1546
2018-05-02T12:05:52.724Z,1535
2018-05-02T12:06:54.250Z,1535
2018-05-02T12:07:55.727Z,1546
2018-05-02T12:08:57.219Z,1552
2018-05-02T12:09:59.076Z,1569
2018-05-02T12:11:00.736Z,1563
2018-05-02T12:12:02.272Z,1597
2018-05-02T12:13:03.902Z,1608
2018-05-02T12:14:05.994Z,1586
2018-05-02T12:15:07.432Z,1541
2018-05-02T12:16:09.055Z,1496
2018-05-02T12:17:10.564Z,1445
2018-05-02T12:18:12.418Z,1400
2018-05-02T12:19:13.972Z,1389
2018-05-02T12:20:15.668Z,1366
2018-05-02T12:21:17.560Z,1344
2018-05-02T12:22:19.177Z,1321
2018-05-02T12:23:20.639Z,1327
2018-05-02T12:24:22.081Z,1338
2018-05-02T12:25:23.493Z,1378
2018-05-02T12:26:24.932Z,1451
2018-05-02T12:27:26.383Z,1440
2018-05-02T12:28:28.016Z,1451
2018-05-02T12:29:29.581Z,1462
2018-05-02T12:30:31.024Z,1440
2018-05-02T12:31:32.945Z,1440
2018-05-02T12:32:34.512Z,1395
2018-05-02T12:33:37.026Z,1361
2018-05-02T12:34:38.662Z,1355
2018-05-02T12:35:40.171Z,1389
2018-05-02T12:36:41.609Z,1383
2018-05-02T12:37:43.109Z,1406
2018-05-02T12:38:44.695Z,1366
2018-05-02T12:39:46.162Z,1366
2018-05-02T12:40:47.683Z,1355
2018-05-02T12:41:49.381Z,1361
2018-05-02T12:42:51.159Z,1366
2018-05-02T12:43:52.595Z,1383
2018-05-02T14:03:33.133Z,1198
2018-05-02T14:04:34.512Z,1181
2018-05-02T14:05:35.880Z,1209
2018-05-02T14:06:37.271Z,1271
2018-05-02T14:07:38.641Z,1265
2018-05-02T14:08:40.027Z,1293
2018-05-02T14:09:41.424Z,1310
2018-05-02T14:10:42.814Z,1372
2018-05-02T14:11:44.185Z,1423
2018-05-02T14:12:45.576Z,1569
2018-05-02T14:13:46.944Z,1648
2018-05-02T14:14:48.317Z,1513
2018-05-02T14:15:49.701Z,1552
2018-05-02T14:16:51.100Z,1226
2018-05-02T14:17:52.474Z,1321
2018-05-02T14:18:53.853Z,1411
2018-05-02T14:19:55.233Z,1260
2018-05-02T14:20:56.609Z,1237
2018-05-02T14:21:57.973Z,1215
2018-05-02T14:22:59.352Z,1231
2018-05-02T14:24:00.868Z,1186
2018-05-02T14:25:02.245Z,1271
2018-05-02T14:26:03.631Z,1198
2018-05-02T14:27:05.003Z,1181
2018-05-02T14:28:06.387Z,1147
2018-05-02T14:29:07.753Z,1119
2018-05-02T14:30:09.138Z,1108
2018-05-02T14:31:10.613Z,1125
2018-05-02T14:32:12.005Z,1271
2018-05-02T14:33:13.394Z,1181
2018-05-02T14:34:14.873Z,1186
2018-05-02T14:35:16.281Z,1186
2018-05-02T14:36:17.718Z,1170
2018-05-02T14:37:19.119Z,1260
2018-05-02T14:38:20.584Z,1456
2018-05-02T14:39:22.438Z,1333
2018-05-02T14:40:24.145Z,1468
2018-05-02T14:41:26.387Z,1575
2018-05-02T14:42:27.966Z,1333
2018-05-02T14:43:29.413Z,1215
2018-05-02T14:44:30.873Z,1136
2018-05-02T14:45:32.301Z,1074
2018-05-02T14:46:33.700Z,1063
2018-05-02T14:47:35.781Z,1074
2018-05-02T14:48:37.249Z,1091
2018-05-02T14:49:38.702Z,1102
2018-05-02T14:50:40.130Z,1164
2018-05-02T14:51:41.550Z,1462
2018-05-02T14:52:42.967Z,1350
2018-05-02T14:53:44.478Z,1552
2018-05-02T14:54:45.932Z,1653
2018-05-02T14:55:47.339Z,1732
2018-05-02T14:56:48.751Z,1546
2018-05-02T14:57:50.170Z,1563
2018-05-02T14:58:51.586Z,1665
2018-05-02T14:59:53.298Z,1693
2018-05-02T15:00:54.728Z,1749
2018-05-02T15:01:56.217Z,1653
2018-05-02T15:02:57.536Z,1552
2018-05-02T15:03:58.956Z,1316
2018-05-02T15:05:00.414Z,1136
2018-05-02T15:06:01.891Z,1248
2018-05-02T15:07:03.331Z,1321
2018-05-02T15:08:04.843Z,1237
2018-05-02T15:09:06.410Z,1265
2018-05-02T15:10:08.049Z,1243
2018-05-02T15:11:09.447Z,1215
2018-05-02T15:12:10.903Z,1192
2018-05-02T15:13:12.334Z,1125
2018-05-02T15:14:13.751Z,1209
2018-05-02T15:15:15.262Z,1209
2018-05-02T15:16:16.681Z,995
2018-05-02T15:17:18.105Z,984
2018-05-02T15:18:19.558Z,1057
2018-05-02T15:19:20.963Z,1175
2018-05-02T15:20:22.346Z,1355
2018-05-02T15:21:23.725Z,1153
2018-05-02T15:22:25.122Z,1074
2018-05-02T15:23:26.537Z,1040
2018-05-02T15:24:27.901Z,1130
2018-05-02T15:25:29.400Z,1248
2018-05-02T15:26:30.799Z,1130
2018-05-02T15:27:32.235Z,1198